createdAt,value
2019-01-27T00:01:46.855Z,79.01
2019-01-27T00:04:18.895Z,78.25
2019-01-27T00:06:50.475Z,78.08
2019-01-27T00:09:21.708Z,77.43
2019-01-27T00:11:52.896Z,76.97
2019-01-27T00:14:24.101Z,77.16
2019-01-27T00:16:55.332Z,76.56
2019-01-27T00:19:26.579Z,77.05
2019-01-27T00:21:57.851Z,76.26
2019-01-27T00:24:29.043Z,76.40
2019-01-27T00:27:00.209Z,76.35
2019-01-27T00:29:31.401Z,76.22
2019-01-27T00:32:02.583Z,76.36
2019-01-27T00:34:33.870Z,76.18
2019-01-27T00:37:05.334Z,75.81
2019-01-27T00:39:36.567Z,76.09
2019-01-27T00:42:07.752Z,76.42
2019-01-27T00:44:39.055Z,76.81
2019-01-27T00:47:10.241Z,76.22
2019-01-27T00:49:41.459Z,75.85
2019-01-27T00:52:12.744Z,76.07
2019-01-27T00:54:43.945Z,75.83
2019-01-27T00:57:15.146Z,76.64
2019-01-27T00:59:46.998Z,77.26
2019-01-27T01:02:18.177Z,76.99
2019-01-27T01:04:49.384Z,77.27
2019-01-27T01:07:20.673Z,77.07
2019-01-27T01:09:51.858Z,77.12
2019-01-27T01:12:23.213Z,77.57
2019-01-27T01:14:54.429Z,77.40
2019-01-27T01:17:25.707Z,77.76
2019-01-27T01:19:56.994Z,76.99
2019-01-27T01:22:28.178Z,76.53
2019-01-27T01:24:59.374Z,77.00
2019-01-27T01:27:30.603Z,76.76
2019-01-27T01:30:03.120Z,76.64
2019-01-27T01:32:35.521Z,77.17
2019-01-27T01:35:08.317Z,77.37
2019-01-27T01:37:39.544Z,76.97
2019-01-27T01:40:13.464Z,76.61
2019-01-27T01:42:44.754Z,76.53
2019-01-27T01:45:24.354Z,76.98
2019-01-27T01:47:55.645Z,76.84
2019-01-27T01:50:26.831Z,77.21
2019-01-27T01:52:58.143Z,76.78
2019-01-27T01:55:29.676Z,77.33
2019-01-27T01:58:00.878Z,77.18
2019-01-27T02:00:32.920Z,76.63
2019-01-27T02:03:04.217Z,76.14
2019-01-27T02:05:35.393Z,75.84
2019-01-27T02:08:06.579Z,76.39
2019-01-27T02:10:38.012Z,77.05
2019-01-27T02:13:09.979Z,76.89
2019-01-27T02:16:04.112Z,76.96
2019-01-27T02:18:36.881Z,77.16
2019-01-27T02:21:08.694Z,77.04
2019-01-27T02:23:41.053Z,76.73
2019-01-27T02:26:12.736Z,76.23
2019-01-27T02:28:44.324Z,76.75
2019-01-27T02:31:15.610Z,76.83
2019-01-27T02:33:46.895Z,76.38
2019-01-27T02:36:18.096Z,75.59
2019-01-27T02:38:49.276Z,76.94
2019-01-27T02:41:20.475Z,76.17
2019-01-27T02:43:51.745Z,76.49
2019-01-27T02:46:22.941Z,76.01
2019-01-27T02:48:54.161Z,76.24
2019-01-27T02:51:25.363Z,76.69
2019-01-27T02:53:56.776Z,76.61
2019-01-27T02:56:27.897Z,75.69
2019-01-27T02:58:59.138Z,75.24
2019-01-27T03:01:30.320Z,75.54
2019-01-27T03:04:01.710Z,76.01
2019-01-27T03:06:54.785Z,75.39
2019-01-27T03:09:30.164Z,75.27
2019-01-27T03:12:01.368Z,75.19
2019-01-27T03:14:32.697Z,74.52
2019-01-27T03:17:04.705Z,75.57
2019-01-27T03:19:35.882Z,75.67
2019-01-27T03:22:07.068Z,75.24
2019-01-27T03:24:38.266Z,74.92
2019-01-27T03:27:09.468Z,74.49
2019-01-27T03:29:40.790Z,75.11
2019-01-27T03:32:12.725Z,74.17
2019-01-27T03:34:43.942Z,74.81
2019-01-27T03:37:15.201Z,75.30
2019-01-27T03:39:46.980Z,75.17
2019-01-27T03:42:18.163Z,74.62
2019-01-27T03:44:49.385Z,75.08
2019-01-27T03:47:20.576Z,76.03
2019-01-27T03:49:51.768Z,76.12
2019-01-27T03:52:23.150Z,75.76
2019-01-27T03:54:54.367Z,75.84
2019-01-27T03:57:25.529Z,75.98
2019-01-27T03:59:56.809Z,75.88
2019-01-27T04:02:28.083Z,76.26
2019-01-27T04:04:59.325Z,75.51
2019-01-27T04:07:30.521Z,75.56
2019-01-27T04:10:01.733Z,76.03
2019-01-27T04:12:33.009Z,76.17
2019-01-27T04:15:05.058Z,75.91
2019-01-27T04:17:36.272Z,74.28
2019-01-27T04:20:10.362Z,74.48
2019-01-27T04:22:42.148Z,74.97
2019-01-27T04:25:15.381Z,74.97
2019-01-27T04:27:46.722Z,75.18
2019-01-27T04:30:29.890Z,75.70
2019-01-27T04:33:00.962Z,74.62
2019-01-27T04:35:32.719Z,74.46
2019-01-27T04:38:04.241Z,74.15
2019-01-27T04:40:35.541Z,74.76
2019-01-27T04:43:06.766Z,73.97
2019-01-27T04:45:39.176Z,73.97
2019-01-27T04:48:10.343Z,76.83
2019-01-27T04:50:41.857Z,74.78
2019-01-27T04:53:12.930Z,74.38
2019-01-27T04:55:44.061Z,74.98
2019-01-27T04:58:15.721Z,74.85
2019-01-27T05:00:46.935Z,75.10
2019-01-27T05:03:36.830Z,75.02
2019-01-27T05:06:08.099Z,74.79
2019-01-27T05:08:39.371Z,75.56
2019-01-27T05:11:10.556Z,75.76
2019-01-27T05:13:43.221Z,75.86
2019-01-27T05:16:14.475Z,75.30
2019-01-27T05:18:45.781Z,75.90
2019-01-27T05:21:17.033Z,75.37
2019-01-27T05:23:48.194Z,76.00
2019-01-27T05:26:19.456Z,75.59
2019-01-27T05:28:50.714Z,75.59
2019-01-27T05:31:22.045Z,75.58
2019-01-27T05:33:53.854Z,76.32
2019-01-27T05:36:25.381Z,75.76
2019-01-27T05:38:56.759Z,76.31
2019-01-27T05:41:27.959Z,76.41
2019-01-27T05:43:59.115Z,77.05
2019-01-27T05:46:30.449Z,76.34
2019-01-27T05:49:01.635Z,76.76
2019-01-27T05:51:32.929Z,76.84
2019-01-27T05:54:04.126Z,77.33
2019-01-27T05:56:35.691Z,77.79
2019-01-27T05:59:06.993Z,78.08
2019-01-27T06:01:38.164Z,78.72
2019-01-27T06:04:09.809Z,77.76
2019-01-27T06:06:40.968Z,77.29
2019-01-27T06:09:12.168Z,77.06
2019-01-27T06:11:43.367Z,77.55
2019-01-27T06:14:14.706Z,77.78
2019-01-27T06:16:45.867Z,77.46
2019-01-27T06:19:17.321Z,77.89
2019-01-27T06:21:48.563Z,78.02
2019-01-27T06:24:19.884Z,77.85
2019-01-27T06:26:51.127Z,77.59
2019-01-27T06:29:22.714Z,77.89
2019-01-27T06:31:53.977Z,78.49
2019-01-27T06:34:25.329Z,78.46
2019-01-27T06:36:56.672Z,77.93
2019-01-27T06:39:28.051Z,78.71
2019-01-27T06:41:59.257Z,79.69
2019-01-27T06:44:30.422Z,78.86
2019-01-27T06:47:01.808Z,78.90
2019-01-27T06:49:33.034Z,79.18
2019-01-27T06:52:04.446Z,79.30
2019-01-27T06:54:35.680Z,79.01
2019-01-27T06:57:07.005Z,79.35
2019-01-27T06:59:55.263Z,79.55
2019-01-27T07:02:40.951Z,78.78
2019-01-27T07:05:21.445Z,78.82
2019-01-27T07:07:59.494Z,78.55
2019-01-27T07:10:57.566Z,78.48
2019-01-27T07:13:47.815Z,80.21
2019-01-27T07:16:50.324Z,79.24
2019-01-27T07:19:46.479Z,79.61
2019-01-27T07:22:42.996Z,79.22
2019-01-27T07:25:51.486Z,79.54
2019-01-27T07:28:30.383Z,79.20
2019-01-27T07:31:30.898Z,79.24
2019-01-27T07:34:20.362Z,79.58
2019-01-27T07:36:57.282Z,80.27
2019-01-27T07:40:02.926Z,80.17
2019-01-27T07:42:42.173Z,80.78
2019-01-27T07:45:48.442Z,80.56
2019-01-27T07:48:38.813Z,80.57
2019-01-27T07:51:47.048Z,80.64
2019-01-27T07:54:31.950Z,80.23
2019-01-27T07:57:22.179Z,80.31
2019-01-27T08:00:11.739Z,80.51
2019-01-27T08:03:11.795Z,80.13
2019-01-27T08:05:59.361Z,80.02
2019-01-27T08:08:53.799Z,80.29
2019-01-27T08:11:49.855Z,80.53
2019-01-27T08:14:30.621Z,80.05
2019-01-27T08:17:23.782Z,80.46
2019-01-27T08:20:14.304Z,80.33
2019-01-27T08:23:02.112Z,80.33
2019-01-27T08:25:53.041Z,80.68
2019-01-27T08:28:52.151Z,80.74
2019-01-27T08:31:35.089Z,80.66
2019-01-27T08:34:25.036Z,81.12
2019-01-27T08:37:06.754Z,81.06
2019-01-27T08:39:56.918Z,81.25
2019-01-27T08:42:45.891Z,81.54
2019-01-27T08:45:37.585Z,81.45
2019-01-27T08:48:08.790Z,81.25
2019-01-27T08:50:40.136Z,81.10
2019-01-27T08:53:11.347Z,80.31
2019-01-27T08:55:44.286Z,80.38
2019-01-27T08:58:15.398Z,80.00
2019-01-27T09:00:55.189Z,79.68
2019-01-27T09:03:34.695Z,79.06
2019-01-27T09:06:25.194Z,79.47
2019-01-27T09:09:20.417Z,78.79
2019-01-27T09:11:59.573Z,78.55
2019-01-27T09:14:41.828Z,78.17
2019-01-27T09:17:35.123Z,77.98
2019-01-27T09:20:39.378Z,78.09
2019-01-27T09:23:34.391Z,77.43
2019-01-27T09:26:27.528Z,77.43
2019-01-27T09:29:12.063Z,77.64
2019-01-27T09:31:52.260Z,77.52
2019-01-27T09:34:38.169Z,77.26
2019-01-27T09:37:26.480Z,76.66
2019-01-27T09:40:11.651Z,76.79
2019-01-27T09:42:52.774Z,76.77
2019-01-27T09:45:39.233Z,76.80
2019-01-27T09:48:29.348Z,76.37
2019-01-27T09:51:19.512Z,76.25
2019-01-27T09:54:15.834Z,76.39
2019-01-27T09:57:07.927Z,75.51
2019-01-27T09:59:56.723Z,75.82
2019-01-27T10:02:49.730Z,75.76
2019-01-27T10:05:29.031Z,75.20
2019-01-27T10:08:07.717Z,75.17
2019-01-27T10:10:55.764Z,74.35
2019-01-27T10:14:04.072Z,73.78
2019-01-27T10:16:51.042Z,74.39
2019-01-27T10:19:29.122Z,74.07
2019-01-27T10:22:15.960Z,74.16
2019-01-27T10:25:06.258Z,73.87
2019-01-27T10:27:49.525Z,74.21
2019-01-27T10:30:31.569Z,74.24
2019-01-27T10:33:24.899Z,74.57
2019-01-27T10:36:33.300Z,74.70
2019-01-27T10:39:25.455Z,74.85
2019-01-27T10:42:18.756Z,74.50
2019-01-27T10:45:08.243Z,74.94
2019-01-27T10:47:57.366Z,74.66
2019-01-27T10:51:05.997Z,74.60
2019-01-27T10:53:52.090Z,74.51
2019-01-27T10:56:34.801Z,75.18
2019-01-27T10:59:21.991Z,75.15
2019-01-27T11:02:10.841Z,75.03
2019-01-27T11:05:03.921Z,75.29
2019-01-27T11:07:45.921Z,75.50
2019-01-27T11:10:40.264Z,75.99
2019-01-27T11:13:41.192Z,76.63
2019-01-27T11:16:34.802Z,76.09
2019-01-27T11:19:28.045Z,76.38
2019-01-27T11:22:25.410Z,76.34
2019-01-27T11:25:22.116Z,77.23
2019-01-27T11:28:09.399Z,77.00
2019-01-27T11:30:59.460Z,76.53
2019-01-27T11:33:53.516Z,76.74
2019-01-27T11:36:38.747Z,76.87
2019-01-27T11:39:28.923Z,77.24
2019-01-27T11:42:12.402Z,76.89
2019-01-27T11:45:02.235Z,76.97
2019-01-27T11:47:45.867Z,76.98
2019-01-27T11:50:30.280Z,76.83
2019-01-27T11:53:07.814Z,77.00
2019-01-27T11:55:41.320Z,77.23
2019-01-27T11:58:21.059Z,77.64
2019-01-27T12:00:56.694Z,77.64
2019-01-27T12:03:33.432Z,77.95
2019-01-27T12:06:14.994Z,78.07
2019-01-27T12:09:16.380Z,77.72
2019-01-27T12:12:10.121Z,77.82
2019-01-27T12:14:41.218Z,77.73
2019-01-27T12:17:14.498Z,77.66
2019-01-27T12:19:47.896Z,77.22
2019-01-27T12:22:21.881Z,77.77
2019-01-27T12:24:53.152Z,78.17
2019-01-27T12:27:27.630Z,78.26
2019-01-27T12:30:00.950Z,78.51
2019-01-27T12:32:36.824Z,78.03
2019-01-27T12:35:08.718Z,78.17
2019-01-27T12:37:41.556Z,78.42
2019-01-27T12:40:17.842Z,78.25
2019-01-27T12:42:52.466Z,78.30
2019-01-27T12:45:31.603Z,78.77
2019-01-27T12:48:17.131Z,78.08
2019-01-27T12:50:48.648Z,77.95
2019-01-27T12:53:21.955Z,77.85
2019-01-27T12:55:53.829Z,77.56
2019-01-27T12:58:25.385Z,77.81
2019-01-27T13:01:00.705Z,77.86
2019-01-27T13:03:32.764Z,77.96
2019-01-27T13:06:07.502Z,78.92
2019-01-27T13:08:52.132Z,78.99
2019-01-27T13:11:31.533Z,79.51
2019-01-27T13:14:04.478Z,79.09
2019-01-27T13:16:38.566Z,79.27
2019-01-27T13:19:12.696Z,79.64
2019-01-27T13:21:44.092Z,79.50
2019-01-27T13:24:16.002Z,79.45
2019-01-27T13:26:49.436Z,79.07
2019-01-27T13:29:20.648Z,79.02
2019-01-27T13:31:52.002Z,78.86
2019-01-27T13:34:23.223Z,78.90
2019-01-27T13:36:54.429Z,79.03
2019-01-27T13:39:25.765Z,78.87
2019-01-27T13:41:58.467Z,78.75
2019-01-27T13:44:31.097Z,79.59
2019-01-27T13:47:04.167Z,80.02
2019-01-27T13:49:37.551Z,79.29
2019-01-27T13:52:10.326Z,78.92
2019-01-27T13:54:43.270Z,78.86
2019-01-27T13:57:18.514Z,79.00
2019-01-27T13:59:52.681Z,79.40
2019-01-27T14:02:24.864Z,79.27
2019-01-27T14:04:56.221Z,79.71
2019-01-27T14:07:27.420Z,79.71
2019-01-27T14:09:58.765Z,80.41
2019-01-27T14:12:29.954Z,80.35
2019-01-27T14:15:01.166Z,79.96
2019-01-27T14:17:32.678Z,79.35
2019-01-27T14:20:05.694Z,79.13
2019-01-27T14:22:36.892Z,79.60
2019-01-27T14:25:08.957Z,79.21
2019-01-27T14:27:40.163Z,79.05
2019-01-27T14:30:14.381Z,78.80
2019-01-27T14:32:45.751Z,78.81
2019-01-27T14:35:17.121Z,78.98
2019-01-27T14:37:48.316Z,79.13
2019-01-27T14:40:21.688Z,79.71
2019-01-27T14:42:52.897Z,80.29
2019-01-27T14:45:26.111Z,80.18
2019-01-27T14:47:57.431Z,80.01
2019-01-27T14:50:34.356Z,80.33
2019-01-27T14:53:06.515Z,80.64
2019-01-27T14:55:37.763Z,80.84
2019-01-27T14:58:08.968Z,80.32
2019-01-27T15:00:42.586Z,80.42
2019-01-27T15:03:15.154Z,80.35
2019-01-27T15:05:46.373Z,79.94
2019-01-27T15:08:17.585Z,80.53
2019-01-27T15:10:48.831Z,80.36
2019-01-27T15:13:20.069Z,80.87
2019-01-27T15:15:52.920Z,80.66
2019-01-27T15:18:24.389Z,79.75
2019-01-27T15:21:00.477Z,79.72
2019-01-27T15:23:33.211Z,79.70
2019-01-27T15:26:04.459Z,79.42
2019-01-27T15:28:35.678Z,79.56
2019-01-27T15:31:06.917Z,79.05
2019-01-27T15:33:38.380Z,79.47
2019-01-27T15:36:09.619Z,79.17
2019-01-27T15:38:40.836Z,78.86
2019-01-27T15:41:12.763Z,78.74
2019-01-27T15:43:48.712Z,78.77
2019-01-27T15:46:17.830Z,78.62
2019-01-27T15:48:49.056Z,78.52
2019-01-27T15:51:20.255Z,78.75
2019-01-27T15:53:51.570Z,78.56
2019-01-27T15:56:22.774Z,78.51
2019-01-27T15:58:53.996Z,78.52
2019-01-27T16:01:25.754Z,78.79
2019-01-27T16:03:57.066Z,78.89
2019-01-27T16:06:28.339Z,79.07
2019-01-27T16:08:59.677Z,79.10
2019-01-27T16:11:30.948Z,79.17
2019-01-27T16:14:02.810Z,79.05
2019-01-27T16:16:34.125Z,79.23
2019-01-27T16:19:05.654Z,78.67
2019-01-27T16:21:36.857Z,78.72
2019-01-27T16:24:18.186Z,78.79
2019-01-27T16:26:53.953Z,78.49
2019-01-27T16:29:49.019Z,78.28
2019-01-27T16:32:40.955Z,78.55
2019-01-27T16:35:18.495Z,78.42
2019-01-27T16:37:50.903Z,78.19
2019-01-27T16:40:22.568Z,78.08
2019-01-27T16:42:54.067Z,78.05
2019-01-27T16:45:25.342Z,78.33
2019-01-27T16:47:56.711Z,78.23
2019-01-27T16:50:27.985Z,78.05
2019-01-27T16:52:59.309Z,78.06
2019-01-27T16:55:30.610Z,78.41
2019-01-27T16:58:03.495Z,78.22
2019-01-27T17:00:34.871Z,78.18
2019-01-27T17:03:09.282Z,77.91
2019-01-27T17:05:40.511Z,77.89
2019-01-27T17:08:12.247Z,78.25
2019-01-27T17:10:44.132Z,77.69
2019-01-27T17:13:15.496Z,77.80
2019-01-27T17:15:46.773Z,77.96
2019-01-27T17:18:17.987Z,78.43
2019-01-27T17:20:49.265Z,78.62
2019-01-27T17:23:20.475Z,78.63
2019-01-27T17:25:53.665Z,78.95
2019-01-27T17:28:24.766Z,79.00
2019-01-27T17:30:57.273Z,78.94
2019-01-27T17:33:29.567Z,79.19
2019-01-27T17:36:00.840Z,79.71
2019-01-27T17:38:32.583Z,79.30
2019-01-27T17:41:03.967Z,79.44
2019-01-27T17:43:35.255Z,79.55
2019-01-27T17:46:06.886Z,79.62
2019-01-27T17:48:38.101Z,79.02
2019-01-27T17:51:09.317Z,79.23
2019-01-27T17:54:05.447Z,79.66
2019-01-27T17:56:36.951Z,79.49
2019-01-27T17:59:20.410Z,80.03
2019-01-27T18:02:10.628Z,79.47
2019-01-27T18:05:25.564Z,79.77
2019-01-27T18:08:31.392Z,80.30
2019-01-27T18:11:17.782Z,80.09
2019-01-27T18:14:00.244Z,79.83
2019-01-27T18:16:31.495Z,79.49
2019-01-27T18:19:04.331Z,79.38
2019-01-27T18:21:35.871Z,79.44
2019-01-27T18:24:20.903Z,79.36
2019-01-27T18:26:56.358Z,79.17
2019-01-27T18:29:30.386Z,79.48
2019-01-27T18:32:03.270Z,79.07
2019-01-27T18:34:35.652Z,79.25
2019-01-27T18:37:07.064Z,78.60
2019-01-27T18:39:40.004Z,78.23
2019-01-27T18:42:15.821Z,78.38
2019-01-27T18:44:47.242Z,77.61
2019-01-27T18:47:20.262Z,77.26
2019-01-27T18:49:51.483Z,77.13
2019-01-27T18:52:22.969Z,77.12
2019-01-27T18:55:11.929Z,76.87
2019-01-27T18:58:10.122Z,76.62
2019-01-27T19:00:52.663Z,76.84
2019-01-27T19:03:50.815Z,76.96
2019-01-27T19:06:47.707Z,76.83
2019-01-27T19:09:40.976Z,77.17
2019-01-27T19:12:40.905Z,77.17
2019-01-27T19:15:37.714Z,77.58
2019-01-27T19:18:43.156Z,77.48
2019-01-27T19:21:39.461Z,77.10
2019-01-27T19:24:40.228Z,76.39
2019-01-27T19:27:32.935Z,76.50
2019-01-27T19:30:15.294Z,76.44
2019-01-27T19:32:57.076Z,75.66
2019-01-27T19:35:54.112Z,75.86
2019-01-27T19:38:52.914Z,75.01
2019-01-27T19:41:35.568Z,75.29
2019-01-27T19:44:15.916Z,75.59
2019-01-27T19:46:57.883Z,74.87
2019-01-27T19:50:00.413Z,75.44
2019-01-27T19:52:59.650Z,75.60
2019-01-27T19:56:09.873Z,75.53
2019-01-27T19:59:04.918Z,75.48
2019-01-27T20:02:07.485Z,75.33
2019-01-27T20:04:56.708Z,75.33
2019-01-27T20:07:48.526Z,74.74
2019-01-27T20:10:59.191Z,74.68
2019-01-27T20:13:52.817Z,75.37
2019-01-27T20:16:43.545Z,74.39
2019-01-27T20:19:25.949Z,74.64
2019-01-27T20:22:19.107Z,74.21
2019-01-27T20:25:16.427Z,74.29
2019-01-27T20:28:21.826Z,73.63
2019-01-27T20:31:12.332Z,74.68
2019-01-27T20:33:53.985Z,73.44
2019-01-27T20:36:36.781Z,73.77
2019-01-27T20:39:27.516Z,73.58
2019-01-27T20:42:08.065Z,73.09
2019-01-27T20:45:02.442Z,73.63
2019-01-27T20:48:00.815Z,73.97
2019-01-27T20:50:49.937Z,74.20
2019-01-27T20:53:39.763Z,73.82
2019-01-27T20:56:35.689Z,73.09
2019-01-27T20:59:23.357Z,73.37
2019-01-27T21:02:17.723Z,73.37
2019-01-27T21:05:00.978Z,73.38
2019-01-27T21:07:38.161Z,73.77
2019-01-27T21:10:29.108Z,74.04
2019-01-27T21:13:17.892Z,74.63
2019-01-27T21:15:55.204Z,75.21
2019-01-27T21:18:45.449Z,74.98
2019-01-27T21:21:16.742Z,75.62
2019-01-27T21:23:47.956Z,76.51
2019-01-27T21:26:19.163Z,77.02
2019-01-27T21:28:50.449Z,77.57
2019-01-27T21:31:21.662Z,77.81
2019-01-27T21:33:52.891Z,78.55
2019-01-27T21:36:24.120Z,78.63
2019-01-27T21:38:55.368Z,79.48
2019-01-27T21:41:26.784Z,79.60
2019-01-27T21:43:58.199Z,79.39
2019-01-27T21:46:29.415Z,79.46
2019-01-27T21:49:00.700Z,79.59
2019-01-27T21:51:31.892Z,80.25
2019-01-27T21:54:03.102Z,80.08
2019-01-27T21:56:34.305Z,80.56
2019-01-27T21:59:05.581Z,80.80
2019-01-27T22:01:36.908Z,80.90
2019-01-27T22:04:08.124Z,80.80
2019-01-27T22:06:39.329Z,81.05
2019-01-27T22:09:10.891Z,81.41
2019-01-27T22:11:42.711Z,81.49
2019-01-27T22:14:14.389Z,82.00
2019-01-27T22:16:45.681Z,82.19
2019-01-27T22:19:16.918Z,82.07
2019-01-27T22:21:48.102Z,82.43
2019-01-27T22:24:19.462Z,82.45
2019-01-27T22:26:50.748Z,82.39
2019-01-27T22:29:21.973Z,82.55
2019-01-27T22:31:53.196Z,82.91
2019-01-27T22:34:24.391Z,82.79
2019-01-27T22:36:55.677Z,82.68
2019-01-27T22:39:26.880Z,82.94
2019-01-27T22:41:58.162Z,83.13
2019-01-27T22:44:29.361Z,83.07
2019-01-27T22:47:00.558Z,82.99
2019-01-27T22:49:31.772Z,82.99
2019-01-27T22:52:03.003Z,83.23
2019-01-27T22:54:34.208Z,83.22
2019-01-27T22:57:05.459Z,83.86
2019-01-27T22:59:36.730Z,83.94
2019-01-27T23:02:07.960Z,83.80
2019-01-27T23:04:39.111Z,83.64
2019-01-27T23:07:10.287Z,83.38
2019-01-27T23:09:41.643Z,83.69
2019-01-27T23:12:12.832Z,83.99
2019-01-27T23:14:44.036Z,83.93
2019-01-27T23:17:15.759Z,83.67
2019-01-27T23:19:46.953Z,83.09
2019-01-27T23:22:18.168Z,83.23
2019-01-27T23:24:49.359Z,83.65
2019-01-27T23:27:20.702Z,83.61
2019-01-27T23:29:52.687Z,83.17
2019-01-27T23:32:23.874Z,83.63
2019-01-27T23:34:55.091Z,83.39
2019-01-27T23:37:27.065Z,83.03
2019-01-27T23:39:58.372Z,82.56
2019-01-27T23:42:29.691Z,83.35
2019-01-27T23:45:00.888Z,82.43
2019-01-27T23:47:32.862Z,83.00
2019-01-27T23:50:04.188Z,83.13
2019-01-27T23:52:35.399Z,83.10
2019-01-27T23:55:06.913Z,83.26
2019-01-27T23:57:38.182Z,83.04
